<?xml version='1.0' encoding='UTF-8'?>
<gpx xmlns="http://www.topografix.com/GPX/1/1" creator="www.balnam.be" version="1.1" xmlns:xsi="http://www.w3.org/2001/XMLSchema-instance" xsi:schemaLocation="http://www.topografix.com/GPX/1/1 http://www.topografix.com/GPX/1/1/gpx.xsd">
<trk>
<name>legch1</name>
<cmt>s</cmt>
<desc>Clermont-sous-Huy Chemin n°1 Fontaines / Aux Houx / Halledet</desc>
<link href="https://chemins.be/clermontsoushuy/chemin/1"/><trkseg>
<trkpt lat="50.555471" lon="5.367774"><time>2026-05-02T21:12:40Z</time></trkpt>
<trkpt lat="50.555116" lon="5.368247"><time>2026-05-02T21:22:40Z</time></trkpt>
<trkpt lat="50.554835" lon="5.368579"><time>2026-05-02T21:32:40Z</time></trkpt>
<trkpt lat="50.554686" lon="5.369155"><time>2026-05-02T21:42:40Z</time></trkpt>
<trkpt lat="50.555004" lon="5.369825"><time>2026-05-02T21:52:40Z</time></trkpt>
<trkpt lat="50.555169" lon="5.370492"><time>2026-05-02T22:02:40Z</time></trkpt>
<trkpt lat="50.555129" lon="5.370598"><time>2026-05-02T22:12:40Z</time></trkpt>
<trkpt lat="50.554874" lon="5.371276"><time>2026-05-02T22:22:40Z</time></trkpt>
<trkpt lat="50.554432" lon="5.371464"><time>2026-05-02T22:32:40Z</time></trkpt>
<trkpt lat="50.553182" lon="5.371536"><time>2026-05-02T22:42:40Z</time></trkpt>
<trkpt lat="50.552041" lon="5.372401"><time>2026-05-02T22:52:40Z</time></trkpt>
<trkpt lat="50.551298" lon="5.373133"><time>2026-05-02T23:02:40Z</time></trkpt>
<trkpt lat="50.551464" lon="5.373715"><time>2026-05-02T23:12:40Z</time></trkpt>
<trkpt lat="50.552355" lon="5.376726"><time>2026-05-02T23:22:40Z</time></trkpt>
<trkpt lat="50.552607" lon="5.377677"><time>2026-05-02T23:32:40Z</time></trkpt>
</trkseg></trk>
<trk>
<name>legch1</name>
<cmt>r</cmt>
<desc>Clermont-sous-Huy Chemin n°1 Fontaines / Aux Houx / Halledet</desc>
<link href="https://chemins.be/clermontsoushuy/chemin/1"/><trkseg>
<trkpt lat="50.552607" lon="5.377677"><time>2026-05-02T23:32:40Z</time></trkpt>
<trkpt lat="50.552599" lon="5.378665"><time>2026-05-02T23:42:40Z</time></trkpt>
<trkpt lat="50.552324" lon="5.380268"><time>2026-05-02T23:52:40Z</time></trkpt>
<trkpt lat="50.552363" lon="5.380918"><time>2026-05-03T00:02:40Z</time></trkpt>
<trkpt lat="50.551934" lon="5.381727"><time>2026-05-03T00:12:40Z</time></trkpt>
<trkpt lat="50.551245" lon="5.383377"><time>2026-05-03T00:22:40Z</time></trkpt>
<trkpt lat="50.550674" lon="5.385976"><time>2026-05-03T00:32:40Z</time></trkpt>
<trkpt lat="50.549079" lon="5.393505"><time>2026-05-03T00:42:40Z</time></trkpt>
</trkseg></trk>
<trk>
<name>legch1</name>
<cmt>q</cmt>
<desc>Clermont-sous-Huy Chemin n°1 Fontaines / Aux Houx / Halledet</desc>
<link href="https://chemins.be/clermontsoushuy/chemin/1"/><trkseg>
<trkpt lat="50.549079" lon="5.393505"><time>2026-05-03T00:42:40Z</time></trkpt>
<trkpt lat="50.549587" lon="5.395040"><time>2026-05-03T00:52:40Z</time></trkpt>
<trkpt lat="50.549679" lon="5.396947"><time>2026-05-03T01:02:40Z</time></trkpt>
<trkpt lat="50.549967" lon="5.398943"><time>2026-05-03T01:12:40Z</time></trkpt>
</trkseg></trk>
<trk>
<name>legch1</name>
<cmt>r</cmt>
<desc>Clermont-sous-Huy Chemin n°1 Fontaines / Aux Houx / Halledet</desc>
<link href="https://chemins.be/clermontsoushuy/chemin/1"/><trkseg>
<trkpt lat="50.549967" lon="5.398943"><time>2026-05-03T01:12:40Z</time></trkpt>
<trkpt lat="50.550025" lon="5.399424"><time>2026-05-03T01:22:40Z</time></trkpt>
<trkpt lat="50.549827" lon="5.400008"><time>2026-05-03T01:32:40Z</time></trkpt>
<trkpt lat="50.549723" lon="5.400625"><time>2026-05-03T01:42:40Z</time></trkpt>
<trkpt lat="50.550145" lon="5.401049"><time>2026-05-03T01:52:40Z</time></trkpt>
<trkpt lat="50.551271" lon="5.402965"><time>2026-05-03T02:02:40Z</time></trkpt>
<trkpt lat="50.551303" lon="5.404363"><time>2026-05-03T02:12:40Z</time></trkpt>
<trkpt lat="50.551500" lon="5.406513"><time>2026-05-03T02:22:40Z</time></trkpt>
<trkpt lat="50.550441" lon="5.408253"><time>2026-05-03T02:32:40Z</time></trkpt>
<trkpt lat="50.549959" lon="5.407918"><time>2026-05-03T02:42:40Z</time></trkpt>
</trkseg></trk>
<trk>
<name>legch1</name>
<cmt>v</cmt>
<desc>Clermont-sous-Huy Chemin n°1 Fontaines / Aux Houx / Halledet</desc>
<link href="https://chemins.be/clermontsoushuy/chemin/1"/><trkseg>
<trkpt lat="50.549959" lon="5.407918"><time>2026-05-03T02:42:40Z</time></trkpt>
<trkpt lat="50.548723" lon="5.409359"><time>2026-05-03T02:52:40Z</time></trkpt>
<trkpt lat="50.546373" lon="5.410760"><time>2026-05-03T03:02:40Z</time></trkpt>
</trkseg></trk>
<trk>
<name>legch1</name>
<cmt>r</cmt>
<desc>Clermont-sous-Huy Chemin n°1 Fontaines / Aux Houx / Halledet</desc>
<link href="https://chemins.be/clermontsoushuy/chemin/1"/><trkseg>
<trkpt lat="50.546373" lon="5.410760"><time>2026-05-03T03:02:40Z</time></trkpt>
<trkpt lat="50.545966" lon="5.414081"><time>2026-05-03T03:12:40Z</time></trkpt>
<trkpt lat="50.545052" lon="5.416714"><time>2026-05-03T03:22:40Z</time></trkpt>
<trkpt lat="50.543732" lon="5.419535"><time>2026-05-03T03:32:40Z</time></trkpt>
<trkpt lat="50.546476" lon="5.422291"><time>2026-05-03T03:42:40Z</time></trkpt>
</trkseg></trk>
<trk>
<name>legch1</name>
<cmt>q</cmt>
<desc>Clermont-sous-Huy Chemin n°1 Fontaines / Aux Houx / Halledet</desc>
<link href="https://chemins.be/clermontsoushuy/chemin/1"/><trkseg>
<trkpt lat="50.546476" lon="5.422291"><time>2026-05-03T03:42:40Z</time></trkpt>
<trkpt lat="50.546973" lon="5.423050"><time>2026-05-03T03:52:40Z</time></trkpt>
<trkpt lat="50.544173" lon="5.428516"><time>2026-05-03T04:02:40Z</time></trkpt>
<trkpt lat="50.537600" lon="5.437628"><time>2026-05-03T04:12:40Z</time></trkpt>
</trkseg>
</trk>
</gpx>